Ames, Iowa
Current Conditions -  °F | °C
As of 3:53 PM on Saturday 25 Oct 2014 (Local Time) from KAMW Reporting Station
Clear Clear  
Wind Chill: 69°   Ceiling: Unl
Heat Index: 69°   Visibility: 10mi
Dew Point: 37°   Wind: 10mph
Humidity: 31%   Direction: 350°N
Pressure: 30.07"   Gusts: NA
Location:  42.03°N, 93.62°W
Report Text: KAMW 252053Z AUTO 35009KT 10SM CLR 21/03 A3007 RMK AO2 SLP182 T02060028 56009
Loading
Personal Weather Stations






























Interactive Weather Map
Tropical Storm Tracking
New forecast layout! Learn more

10-Day Weather Forecast

Advertisements
Track Severe Weather on mobile